createdAt,value
2023-04-14T00:01:15.555Z,1.20
2023-04-14T00:06:18.294Z,1.10
2023-04-14T00:11:22.830Z,1.60
2023-04-14T00:16:25.489Z,1.20
2023-04-14T00:21:28.959Z,1.20
2023-04-14T00:26:34.090Z,1.93
2023-04-14T00:31:46.713Z,2.25
2023-04-14T00:36:49.358Z,0.95
2023-04-14T00:41:54.085Z,2.03
2023-04-14T00:46:56.995Z,1.77
2023-04-14T00:57:07.266Z,2.65
2023-04-14T01:02:18.765Z,1.65
2023-04-14T01:07:21.606Z,1.50
2023-04-14T01:12:32.644Z,1.40
2023-04-14T01:17:38.723Z,1.40
2023-04-14T01:22:48.833Z,1.90
2023-04-14T01:27:58.213Z,2.03
2023-04-14T01:33:05.528Z,1.80
2023-04-14T01:38:09.878Z,1.20
2023-04-14T01:43:14.654Z,1.73
2023-04-14T01:48:18.813Z,1.70
2023-04-14T01:58:24.270Z,1.30
2023-04-14T02:03:29.078Z,1.20
2023-04-14T02:08:33.192Z,1.38
2023-04-14T02:13:37.071Z,1.30
2023-04-14T02:18:50.481Z,1.10
2023-04-14T02:23:54.167Z,1.50
2023-04-14T02:29:02.565Z,1.20
2023-04-14T02:34:08.389Z,1.20
2023-04-14T02:39:13.006Z,1.60
2023-04-14T02:44:18.336Z,1.15
2023-04-14T02:49:22.455Z,1.27
2023-04-14T02:54:26.510Z,1.65
2023-04-14T02:59:29.367Z,1.67
2023-04-14T03:04:34.630Z,1.70
2023-04-14T03:09:39.159Z,2.00
2023-04-14T03:14:44.006Z,1.75
2023-04-14T03:19:49.132Z,1.67
2023-04-14T03:24:53.237Z,1.40
2023-04-14T03:29:57.287Z,1.50
2023-04-14T03:35:03.705Z,1.40
2023-04-14T03:40:07.492Z,1.80
2023-04-14T03:45:11.234Z,1.45
2023-04-14T03:50:15.971Z,1.80
2023-04-14T03:55:20.107Z,1.65
2023-04-14T04:00:23.715Z,1.40
2023-04-14T04:05:28.639Z,2.53
2023-04-14T04:15:36.109Z,2.40
2023-04-14T04:20:41.854Z,1.70
2023-04-14T04:25:45.687Z,2.03
2023-04-14T04:30:49.896Z,3.70
2023-04-14T04:35:54.092Z,3.97
2023-04-14T04:40:56.907Z,2.85
2023-04-14T04:46:22.363Z,3.33
2023-04-14T04:51:28.669Z,3.55
2023-04-14T04:56:31.645Z,4.72
2023-04-14T05:01:34.493Z,4.88
2023-04-14T05:06:38.535Z,5.63
2023-04-14T05:11:41.451Z,4.35
2023-04-14T05:16:46.038Z,5.13
2023-04-14T05:21:51.164Z,4.38
2023-04-14T05:27:12.564Z,5.13
2023-04-14T05:32:17.477Z,5.35
2023-04-14T05:37:21.563Z,4.82
2023-04-14T05:47:28.164Z,4.50
2023-04-14T05:52:32.746Z,4.55
2023-04-14T05:57:35.727Z,3.35
2023-04-14T06:02:39.347Z,4.47
2023-04-14T06:07:43.506Z,4.80
2023-04-14T06:12:46.001Z,4.85
2023-04-14T06:17:48.664Z,5.30
2023-04-14T06:22:52.764Z,4.90
2023-04-14T06:27:57.042Z,4.60
2023-04-14T06:33:01.873Z,3.92
2023-04-14T06:38:05.929Z,5.18
2023-04-14T06:43:10.804Z,4.97
2023-04-14T06:53:26.287Z,4.07
2023-04-14T06:58:29.451Z,3.58
2023-04-14T07:03:33.088Z,4.40
2023-04-14T07:08:37.233Z,3.30
2023-04-14T07:18:42.339Z,3.90
2023-04-14T07:23:46.947Z,3.90
2023-04-14T07:28:50.028Z,4.22
2023-04-14T07:33:53.336Z,3.70
2023-04-14T07:38:57.335Z,3.00
2023-04-14T07:44:00.448Z,3.05
2023-04-14T07:49:03.625Z,3.00
2023-04-14T07:54:09.604Z,3.55
2023-04-14T07:59:12.623Z,3.42
2023-04-14T08:04:16.269Z,3.80
2023-04-14T08:09:20.665Z,3.10
2023-04-14T08:14:23.364Z,2.97
2023-04-14T08:19:27.138Z,2.88
2023-04-14T08:24:32.097Z,2.80
2023-04-14T08:34:37.597Z,2.25
2023-04-14T08:39:41.522Z,3.38
2023-04-14T08:44:45.109Z,2.35
2023-04-14T08:49:54.952Z,3.47
2023-04-14T08:55:01.255Z,2.75
2023-04-14T09:00:05.023Z,2.88
2023-04-14T09:05:08.120Z,3.08
2023-04-14T09:10:12.937Z,3.33
2023-04-14T09:15:17.136Z,2.40
2023-04-14T09:20:35.348Z,2.70
2023-04-14T09:25:44.786Z,3.08
2023-04-14T09:30:48.581Z,2.60
2023-04-14T09:35:54.393Z,3.55
2023-04-14T09:40:58.664Z,2.72
2023-04-14T09:51:14.424Z,3.17
2023-04-14T09:56:20.025Z,2.40
2023-04-14T10:01:23.205Z,1.60
2023-04-14T10:06:26.785Z,1.85
2023-04-14T10:11:32.784Z,2.40
2023-04-14T10:16:45.810Z,3.80
2023-04-14T10:21:49.477Z,2.63
2023-04-14T10:26:54.199Z,3.30
2023-04-14T10:32:00.638Z,3.10
2023-04-14T10:47:25.860Z,2.00
2023-04-14T10:57:31.942Z,1.75
2023-04-14T11:02:54.949Z,2.28
2023-04-14T11:08:00.710Z,2.13
2023-04-14T11:33:17.955Z,2.30
2023-04-14T11:38:21.587Z,2.30
2023-04-14T11:48:29.101Z,2.40
2023-04-14T11:53:40.177Z,2.00
2023-04-14T12:03:49.559Z,1.70
2023-04-14T12:08:53.185Z,1.50
2023-04-14T12:13:57.426Z,2.10
2023-04-14T12:19:01.926Z,1.70
2023-04-14T12:24:05.395Z,1.48
2023-04-14T12:29:10.044Z,1.38
2023-04-14T12:34:18.266Z,1.52
2023-04-14T12:39:22.309Z,1.40
2023-04-14T12:49:37.419Z,1.35
2023-04-14T12:54:46.961Z,1.60
2023-04-14T12:59:50.569Z,2.13
2023-04-14T13:04:54.964Z,2.47
2023-04-14T13:09:58.712Z,2.30
2023-04-14T13:15:01.511Z,1.20
2023-04-14T13:20:05.984Z,0.90
2023-04-14T13:25:10.050Z,0.82
2023-04-14T13:41:02.229Z,0.60
2023-04-14T13:46:05.001Z,0.30
2023-04-14T13:51:07.814Z,0.60
2023-04-14T13:56:11.888Z,0.90
2023-04-14T14:01:15.661Z,0.63
2023-04-14T14:06:18.682Z,0.97
2023-04-14T14:11:23.345Z,1.17
2023-04-14T14:21:31.911Z,1.30
2023-04-14T14:26:35.978Z,1.40
2023-04-14T14:31:38.658Z,1.50
2023-04-14T14:36:41.431Z,1.60
2023-04-14T14:41:46.268Z,1.42
2023-04-14T14:46:48.952Z,5.82
2023-04-14T14:51:52.217Z,1.40
2023-04-14T14:56:57.499Z,1.80
2023-04-14T15:02:01.360Z,2.83
2023-04-14T15:07:04.828Z,1.30
2023-04-14T15:27:18.133Z,6.38
2023-04-14T15:32:25.318Z,1.23
2023-04-14T15:37:28.226Z,2.38
2023-04-14T15:42:32.279Z,1.60
2023-04-14T15:47:34.915Z,1.92
2023-04-14T15:52:37.886Z,1.77
2023-04-14T15:57:42.369Z,1.20
2023-04-14T16:02:46.651Z,2.15
2023-04-14T16:07:49.517Z,1.40
2023-04-14T16:12:54.001Z,0.73
2023-04-14T16:17:56.905Z,0.93
2023-04-14T16:23:00.641Z,1.20
2023-04-14T16:28:04.853Z,1.73
2023-04-14T16:33:07.606Z,1.95
2023-04-14T16:38:11.352Z,2.00
2023-04-14T16:43:26.108Z,1.52
2023-04-14T16:48:29.207Z,1.40
2023-04-14T16:53:32.481Z,1.88
2023-04-14T16:58:37.957Z,0.90
2023-04-14T17:03:41.620Z,2.00
2023-04-14T17:08:44.435Z,1.93
2023-04-14T17:13:49.044Z,1.87
2023-04-14T17:18:53.362Z,2.83
2023-04-14T17:23:56.820Z,1.45
2023-04-14T17:29:01.335Z,1.73
2023-04-14T17:34:10.457Z,2.20
2023-04-14T17:39:13.866Z,1.20
2023-04-14T17:44:17.792Z,1.17
2023-04-14T17:49:22.292Z,2.50
2023-04-14T17:54:25.447Z,2.70
2023-04-14T17:59:29.950Z,2.08
2023-04-14T18:04:32.537Z,2.53
2023-04-14T18:09:36.167Z,1.77
2023-04-14T18:14:41.520Z,2.10
2023-04-14T18:19:44.776Z,2.97
2023-04-14T18:24:48.176Z,1.73
2023-04-14T18:29:55.370Z,2.08
2023-04-14T18:34:58.759Z,2.97
2023-04-14T18:40:01.492Z,1.85
2023-04-14T18:45:06.095Z,2.30
2023-04-14T18:50:09.274Z,2.78
2023-04-14T18:55:12.055Z,4.33
2023-04-14T19:00:17.134Z,5.53
2023-04-14T19:05:30.694Z,3.58
2023-04-14T19:10:34.313Z,3.80
2023-04-14T19:15:40.760Z,4.22
2023-04-14T19:20:48.553Z,4.22
2023-04-14T19:30:58.182Z,4.20
2023-04-14T19:36:02.492Z,7.03
2023-04-14T19:41:05.105Z,1.25
2023-04-14T19:46:10.491Z,3.10
2023-04-14T19:51:14.185Z,3.28
2023-04-14T19:56:16.979Z,2.83
2023-04-14T20:01:23.997Z,3.75
2023-04-14T20:06:27.013Z,3.28
2023-04-14T20:11:30.916Z,3.93
2023-04-14T20:16:35.859Z,3.80
2023-04-14T20:26:43.690Z,0.90
2023-04-14T20:31:48.657Z,2.83
2023-04-14T20:41:56.767Z,1.80
2023-04-14T20:47:01.752Z,0.93
2023-04-14T20:52:06.082Z,3.17
2023-04-14T20:57:09.037Z,1.38
2023-04-14T21:02:13.228Z,3.40
2023-04-14T21:07:16.442Z,1.85
2023-04-14T21:12:20.008Z,2.83
2023-04-14T21:17:24.291Z,2.65
2023-04-14T21:22:28.206Z,3.22
2023-04-14T21:27:30.952Z,3.47
2023-04-14T21:32:35.067Z,3.58
2023-04-14T21:37:38.496Z,3.25
2023-04-14T21:42:41.584Z,4.13
2023-04-14T21:47:45.723Z,3.60
2023-04-14T21:52:58.614Z,2.25
2023-04-14T21:58:03.262Z,2.40
2023-04-14T22:03:09.629Z,3.53
2023-04-14T22:08:13.651Z,1.65
2023-04-14T22:13:16.557Z,2.17
2023-04-14T22:18:22.073Z,2.23
2023-04-14T22:23:34.967Z,1.88
2023-04-14T22:28:37.711Z,1.90
2023-04-14T22:33:41.894Z,2.03
2023-04-14T22:43:51.364Z,2.50
2023-04-14T22:48:56.984Z,2.67
2023-04-14T22:54:00.022Z,2.30
2023-04-14T22:59:03.394Z,2.00
2023-04-14T23:04:07.687Z,1.52
2023-04-14T23:14:13.313Z,1.85
2023-04-14T23:19:17.263Z,2.30
2023-04-14T23:24:20.702Z,2.85
2023-04-14T23:29:24.436Z,1.98
2023-04-14T23:34:29.455Z,3.10
2023-04-14T23:39:33.543Z,2.58
2023-04-14T23:44:36.339Z,2.60
2023-04-14T23:49:40.460Z,2.85
2023-04-14T23:54:43.759Z,2.70
2023-04-14T23:59:46.469Z,2.80
